Minerva Anna — SVNP — position and weather

sailwx.info

Track history (hours):
 
Tides and Currents Weather Stations Pressure Air Temp Water Temp Dewpoint Dewpoint Depression Visibility Wind Speed Wind Dir Waves Ship Positions

Minerva Anna

Last reported at 2014-Nov-27 00:34 UTC. Time now 2014-Nov-27 01:19 UTC.
Position N 58°21' E 011°26'.

AWS

Date/timePositionNaut miles runAvg speedWind from/ knotsBaromVisibWave heightAir tempDewpointWater temp
2014-Nov-27 00:34N 58°21' E 011°26'0 0.0
2014-Nov-26 23:33N 58°21' E 011°26'0 0.0
2014-Nov-26 22:33N 58°21' E 011°26'0 0.0
2014-Nov-26 21:33N 58°21' E 011°26'0 0.0
2014-Nov-26 20:34N 58°21' E 011°26'0 0.0
2014-Nov-26 19:33N 58°21' E 011°26'0 0.0
2014-Nov-26 18:34N 58°21' E 011°26'0 0.0
2014-Nov-26 17:34N 58°21' E 011°26'0 0.0
2014-Nov-26 16:33N 58°21' E 011°26'0 0.0
2014-Nov-26 15:34N 58°21' E 011°26'0 0.0
2014-Nov-26 14:33N 58°21' E 011°26'0 0.0
2014-Nov-26 13:34N 58°21' E 011°26'0 0.0
2014-Nov-26 12:33N 58°21' E 011°26'0 0.0
2014-Nov-26 11:33N 58°21' E 011°26'0 0.0
2014-Nov-26 10:33N 58°21' E 011°26'0 0.0
2014-Nov-26 09:33N 58°21' E 011°26'3 2.6
2014-Nov-26 08:33N 58°20' E 011°22'1 0.9
2014-Nov-26 07:34N 58°20' E 011°21'0 0.0
2014-Nov-26 06:34N 58°20' E 011°21'0 0.0
2014-Nov-26 05:34N 58°20' E 011°21'0 0.0
2014-Nov-26 04:34N 58°20' E 011°21'0 0.0
2014-Nov-26 03:34N 58°20' E 011°21'0 0.0
2014-Nov-26 02:33N 58°20' E 011°21'0 0.0
2014-Nov-26 01:33N 58°20' E 011°21'0 0.0
2014-Nov-26 00:34N 58°20' E 011°21'0 0.0
2014-Nov-25 23:34N 58°20' E 011°21'0 0.1
2014-Nov-25 22:34N 58°20' E 011°21'0 0.1
2014-Nov-25 21:34N 58°20' E 011°21'0 0.0
2014-Nov-25 20:34N 58°20' E 011°21'0 0.0
2014-Nov-25 19:34N 58°20' E 011°21'0 0.0
2014-Nov-25 18:34N 58°20' E 011°21'0 0.0
2014-Nov-25 17:34N 58°20' E 011°21'0 0.0
2014-Nov-25 16:34N 58°20' E 011°21'0 0.1
2014-Nov-25 15:33N 58°20' E 011°21'0 0.0
2014-Nov-25 14:33N 58°20' E 011°21'0 0.0
2014-Nov-25 13:34N 58°20' E 011°21'0 0.0
2014-Nov-25 12:34N 58°20' E 011°21'0 0.0
2014-Nov-25 11:34N 58°20' E 011°21'0 0.0
2014-Nov-25 10:34N 58°20' E 011°21'0 0.0
2014-Nov-25 09:34N 58°20' E 011°21'0 0.0
2014-Nov-25 08:33N 58°20' E 011°21'0 0.0
2014-Nov-25 07:34N 58°20' E 011°21'0 0.0
2014-Nov-25 06:34N 58°20' E 011°21'0 0.1
2014-Nov-25 05:34N 58°20' E 011°21'0 0.0
2014-Nov-25 04:33N 58°20' E 011°21'0 0.0
2014-Nov-25 03:33N 58°20' E 011°21'0 0.0
2014-Nov-25 02:34N 58°20' E 011°21'0 0.0
2014-Nov-25 01:33N 58°20' E 011°21'0 0.0
2014-Nov-25 00:34N 58°20' E 011°21'0 0.0
2014-Nov-24 23:34N 58°20' E 011°21'0 0.0
2014-Nov-24 22:33N 58°20' E 011°21'0 0.0
2014-Nov-24 21:33N 58°20' E 011°21'0 0.0
2014-Nov-24 20:34N 58°20' E 011°21'0 0.0
2014-Nov-24 19:33N 58°20' E 011°21'0 0.0
2014-Nov-24 18:34N 58°20' E 011°21'0 0.0
2014-Nov-24 17:33N 58°20' E 011°21'0 0.0
2014-Nov-24 16:33N 58°20' E 011°21'5 4.8
2014-Nov-24 15:33N 58°16' E 011°15'5 5.2
2014-Nov-24 14:33N 58°11' E 011°10'0 0.1
2014-Nov-24 13:34N 58°12' E 011°10'0 0.0
2014-Nov-24 12:33N 58°12' E 011°10'0 0.0
2014-Nov-24 11:33N 58°12' E 011°10'0 0.0
2014-Nov-24 10:33N 58°12' E 011°10'0 0.0
2014-Nov-24 09:34N 58°12' E 011°10'0 0.0
2014-Nov-24 08:33N 58°12' E 011°10'0 0.1
2014-Nov-24 07:34N 58°12' E 011°10'5 4.7
2014-Nov-24 06:34N 58°09' E 011°02'7 7.0
2014-Nov-24 05:33N 58°06' E 010°50'7 7.1
2014-Nov-24 04:34N 58°04' E 010°38'7 7.1
2014-Nov-24 03:33N 57°60' E 010°26'8 7.5
2014-Nov-24 02:33N 57°56' E 010°14'280 7.8
2014-Nov-22 14:33N 54°18' E 004°60'10 9.0
2014-Nov-22 13:26N 54°10' E 004°51'8 9.0
2014-Nov-22 12:33N 54°03' E 004°44'9 8.9
2014-Nov-22 11:33N 53°56' E 004°35'18 8.9
2014-Nov-22 09:32N 53°43' E 004°14'9 8.9
2014-Nov-22 08:32N 53°37' E 004°02'9 9.0
2014-Nov-22 07:32N 53°32' E 003°50'9 9.1
2014-Nov-22 06:31N 53°24' E 003°42'10 9.6
2014-Nov-22 05:31N 53°15' E 003°35'1010.0
2014-Nov-22 04:32N 53°06' E 003°28'1110.4
2014-Nov-22 03:29N 52°56' E 003°21'2110.7
2014-Nov-22 01:30N 52°37' E 003°05'1010.8
2014-Nov-22 00:33N 52°28' E 002°57'1010.3
2014-Nov-21 23:33N 52°19' E 002°48'9 9.4
2014-Nov-21 22:33N 52°11' E 002°41'9 8.5
2014-Nov-21 21:33N 52°03' E 002°39'8 8.1
2014-Nov-21 20:34N 51°55' E 002°39'8 7.8
2014-Nov-21 19:33N 51°47' E 002°37'7 7.5
2014-Nov-21 18:33N 51°41' E 002°29'8 7.8
2014-Nov-21 17:34N 51°35' E 002°21'9 8.6
2014-Nov-21 16:33N 51°29' E 002°12'9 9.2
2014-Nov-21 15:33N 51°22' E 002°02'10 9.9
2014-Nov-21 14:34N 51°15' E 001°51'1110.5
2014-Nov-21 13:33N 51°07' E 001°41'1111.4
2014-Nov-21 12:33N 50°57' E 001°30'1211.7
2014-Nov-21 11:34N 50°46' E 001°24'1210.6
2014-Nov-21 10:28N 50°38' E 001°12'1110.1
2014-Nov-21 09:24N 50°31' E 000°59'810.0
2014-Nov-21 08:33N 50°28' E 000°46'1010.3
2014-Nov-21 07:33N 50°25' E 000°31'1410.4
2014-Nov-21 06:13N 50°21' E 000°10'44 7.6
2014-Nov-21 00:31N 50°10' W 000°56'6 6.0
2014-Nov-20 23:33N 50°09' W 001°05'9 7.1
2014-Nov-20 22:19N 50°06' W 001°18'9 8.5
2014-Nov-20 21:18N 50°04' W 001°31'7 9.5
2014-Nov-20 20:33N 50°02' W 001°41'1010.5
2014-Nov-20 19:33N 49°60' W 001°57'1111.0
2014-Nov-20 18:33N 49°57' W 002°14'  
Track history (hours):
 
Tides and Currents Weather Stations Pressure Air Temp Water Temp Dewpoint Dewpoint Depression Visibility Wind Speed Wind Dir Waves Ship Positions

Minerva Anna

Last reported at 2014-Nov-27 00:34 UTC. Time now 2014-Nov-27 01:19 UTC.
Position N 58°21' E 011°26'.

AWS

Date/timePositionNaut miles runAvg speedWind from/ knotsBaromVisibWave heightAir tempDewpointWater temp
2014-Nov-27 00:34N 58°21' E 011°26'0 0.0
2014-Nov-26 23:33N 58°21' E 011°26'0 0.0
2014-Nov-26 22:33N 58°21' E 011°26'0 0.0
2014-Nov-26 21:33N 58°21' E 011°26'0 0.0
2014-Nov-26 20:34N 58°21' E 011°26'0 0.0
2014-Nov-26 19:33N 58°21' E 011°26'0 0.0
2014-Nov-26 18:34N 58°21' E 011°26'0 0.0
2014-Nov-26 17:34N 58°21' E 011°26'0 0.0
2014-Nov-26 16:33N 58°21' E 011°26'0 0.0
2014-Nov-26 15:34N 58°21' E 011°26'0 0.0
2014-Nov-26 14:33N 58°21' E 011°26'0 0.0
2014-Nov-26 13:34N 58°21' E 011°26'0 0.0
2014-Nov-26 12:33N 58°21' E 011°26'0 0.0
2014-Nov-26 11:33N 58°21' E 011°26'0 0.0
2014-Nov-26 10:33N 58°21' E 011°26'0 0.0
2014-Nov-26 09:33N 58°21' E 011°26'3 2.6
2014-Nov-26 08:33N 58°20' E 011°22'1 0.9
2014-Nov-26 07:34N 58°20' E 011°21'0 0.0
2014-Nov-26 06:34N 58°20' E 011°21'0 0.0
2014-Nov-26 05:34N 58°20' E 011°21'0 0.0
2014-Nov-26 04:34N 58°20' E 011°21'0 0.0
2014-Nov-26 03:34N 58°20' E 011°21'0 0.0
2014-Nov-26 02:33N 58°20' E 011°21'0 0.0
2014-Nov-26 01:33N 58°20' E 011°21'0 0.0
2014-Nov-26 00:34N 58°20' E 011°21'0 0.0
2014-Nov-25 23:34N 58°20' E 011°21'0 0.1
2014-Nov-25 22:34N 58°20' E 011°21'0 0.1
2014-Nov-25 21:34N 58°20' E 011°21'0 0.0
2014-Nov-25 20:34N 58°20' E 011°21'0 0.0
2014-Nov-25 19:34N 58°20' E 011°21'0 0.0
2014-Nov-25 18:34N 58°20' E 011°21'0 0.0
2014-Nov-25 17:34N 58°20' E 011°21'0 0.0
2014-Nov-25 16:34N 58°20' E 011°21'0 0.1
2014-Nov-25 15:33N 58°20' E 011°21'0 0.0
2014-Nov-25 14:33N 58°20' E 011°21'0 0.0
2014-Nov-25 13:34N 58°20' E 011°21'0 0.0
2014-Nov-25 12:34N 58°20' E 011°21'0 0.0
2014-Nov-25 11:34N 58°20' E 011°21'0 0.0
2014-Nov-25 10:34N 58°20' E 011°21'0 0.0
2014-Nov-25 09:34N 58°20' E 011°21'0 0.0
2014-Nov-25 08:33N 58°20' E 011°21'0 0.0
2014-Nov-25 07:34N 58°20' E 011°21'0 0.0
2014-Nov-25 06:34N 58°20' E 011°21'0 0.1
2014-Nov-25 05:34N 58°20' E 011°21'0 0.0
2014-Nov-25 04:33N 58°20' E 011°21'0 0.0
2014-Nov-25 03:33N 58°20' E 011°21'0 0.0
2014-Nov-25 02:34N 58°20' E 011°21'0 0.0
2014-Nov-25 01:33N 58°20' E 011°21'0 0.0
2014-Nov-25 00:34N 58°20' E 011°21'0 0.0
2014-Nov-24 23:34N 58°20' E 011°21'0 0.0
2014-Nov-24 22:33N 58°20' E 011°21'0 0.0
2014-Nov-24 21:33N 58°20' E 011°21'0 0.0
2014-Nov-24 20:34N 58°20' E 011°21'0 0.0
2014-Nov-24 19:33N 58°20' E 011°21'0 0.0
2014-Nov-24 18:34N 58°20' E 011°21'0 0.0
2014-Nov-24 17:33N 58°20' E 011°21'0 0.0
2014-Nov-24 16:33N 58°20' E 011°21'5 4.8
2014-Nov-24 15:33N 58°16' E 011°15'5 5.2
2014-Nov-24 14:33N 58°11' E 011°10'0 0.1
2014-Nov-24 13:34N 58°12' E 011°10'0 0.0
2014-Nov-24 12:33N 58°12' E 011°10'0 0.0
2014-Nov-24 11:33N 58°12' E 011°10'0 0.0
2014-Nov-24 10:33N 58°12' E 011°10'0 0.0
2014-Nov-24 09:34N 58°12' E 011°10'0 0.0
2014-Nov-24 08:33N 58°12' E 011°10'0 0.1
2014-Nov-24 07:34N 58°12' E 011°10'5 4.7
2014-Nov-24 06:34N 58°09' E 011°02'7 7.0
2014-Nov-24 05:33N 58°06' E 010°50'7 7.1
2014-Nov-24 04:34N 58°04' E 010°38'7 7.1
2014-Nov-24 03:33N 57°60' E 010°26'8 7.5
2014-Nov-24 02:33N 57°56' E 010°14'280 7.8
2014-Nov-22 14:33N 54°18' E 004°60'10 9.0
2014-Nov-22 13:26N 54°10' E 004°51'8 9.0
2014-Nov-22 12:33N 54°03' E 004°44'9 8.9
2014-Nov-22 11:33N 53°56' E 004°35'18 8.9
2014-Nov-22 09:32N 53°43' E 004°14'9 8.9
2014-Nov-22 08:32N 53°37' E 004°02'9 9.0
2014-Nov-22 07:32N 53°32' E 003°50'9 9.1
2014-Nov-22 06:31N 53°24' E 003°42'10 9.6
2014-Nov-22 05:31N 53°15' E 003°35'1010.0
2014-Nov-22 04:32N 53°06' E 003°28'1110.4
2014-Nov-22 03:29N 52°56' E 003°21'2110.7
2014-Nov-22 01:30N 52°37' E 003°05'1010.8
2014-Nov-22 00:33N 52°28' E 002°57'1010.3
2014-Nov-21 23:33N 52°19' E 002°48'9 9.4
2014-Nov-21 22:33N 52°11' E 002°41'9 8.5
2014-Nov-21 21:33N 52°03' E 002°39'8 8.1
2014-Nov-21 20:34N 51°55' E 002°39'8 7.8
2014-Nov-21 19:33N 51°47' E 002°37'7 7.5
2014-Nov-21 18:33N 51°41' E 002°29'8 7.8
2014-Nov-21 17:34N 51°35' E 002°21'9 8.6
2014-Nov-21 16:33N 51°29' E 002°12'9 9.2
2014-Nov-21 15:33N 51°22' E 002°02'10 9.9
2014-Nov-21 14:34N 51°15' E 001°51'1110.5
2014-Nov-21 13:33N 51°07' E 001°41'1111.4
2014-Nov-21 12:33N 50°57' E 001°30'1211.7
2014-Nov-21 11:34N 50°46' E 001°24'1210.6
2014-Nov-21 10:28N 50°38' E 001°12'1110.1
2014-Nov-21 09:24N 50°31' E 000°59'810.0
2014-Nov-21 08:33N 50°28' E 000°46'1010.3
2014-Nov-21 07:33N 50°25' E 000°31'1410.4
2014-Nov-21 06:13N 50°21' E 000°10'44 7.6
2014-Nov-21 00:31N 50°10' W 000°56'6 6.0
2014-Nov-20 23:33N 50°09' W 001°05'9 7.1
2014-Nov-20 22:19N 50°06' W 001°18'9 8.5
2014-Nov-20 21:18N 50°04' W 001°31'7 9.5
2014-Nov-20 20:33N 50°02' W 001°41'1010.5
2014-Nov-20 19:33N 49°60' W 001°57'1111.0
2014-Nov-20 18:33N 49°57' W 002°14'  

Dump ship's entire track history